KCHS/CHS METAR and TAF weather

Enter ICAO airport designator
Station Type Date Time Source
KCHS METAR 2022/06/28 23:56 UTC NOAA

KCHS 282356Z 12008KT 10SM SCT020 SCT070 BKN150 26/22 A3015 RMK AO2 SLP208 60004 T02610222 10267 20228 53003


Station Type Date Time Source
KCHS Decoded METAR 2022/06/28 23:56 UTC NOAA

CHARLESTON INT'L AIRPORT, SC, United States (KCHS) 32-54N 080-02W 13M
Jun 28, 2022 - 07:56 PM EDT / 2022.06.28 2356 UTC
Wind: from the ESE (120 degrees) at 9 MPH (8 KT):0
Visibility: 10 mile(s):0
Sky conditions: mostly cloudy
Temperature: 79.0 F (26.1 C)
Dew Point: 72.0 F (22.2 C)
Relative Humidity: 79%
Pressure (altimeter): 30.15 in. Hg (1020 hPa)
Pressure tendency: 0.01 inches (0.3 hPa) higher than three hours ago
ob: KCHS 282356Z 12008KT 10SM SCT020 SCT070 BKN150 26/22 A3015 RMK AO2 SLP208 60004 T02610222 10267 20228 53003
cycle: 0

Station Type Date Time Source
KCHS TAF 2022/06/28 19:06 UTC NOAA

TAF
AMD KCHS 281902Z 2819/2918 VRB06KT 6SM -RA BR BKN030
FM282030 12009KT P6SM SCT035 BKN080
FM290800 06003KT P6SM -SHRA SCT025 BKN150
FM291500 12007KT 5SM SHRA VCTS SCT030CB BKN040

Example: see airport list